Time;durP1;ratioP1;P1;durP2;ratioP2;P2;SDS_P1;SDS_P2;PMS_P1;PMS_P2;Temp;Humidity;BMP_temperature;BMP_pressure;BME280_temperature;BME280_humidity;BME280_pressure;Samples;Min_cycle;Max_cycle;Signal;HPM_P1;HPM_P2
2022/11/26 00:02:29;;;;;;;8.73;4.50;;;;;;;28.94;77.14;101038.81;5076674;27;66673;-35
2022/11/26 00:05:01;;;;;;;7.22;4.00;;;;;;;29.30;76.71;101097.13;5089040;27;70745;-35
2022/11/26 00:07:33;;;;;;;4.55;3.92;;;;;;;29.30;76.77;101099.00;5079252;27;66083;-35
2022/11/26 00:10:08;;;;;;;7.75;4.60;;;;;;;29.18;76.83;101082.56;5084404;27;69657;-36
2022/11/26 00:12:40;;;;;;;5.60;4.97;;;;;;;29.29;77.00;101095.47;5087439;27;65482;-35
2022/11/26 00:15:31;;;;;;;5.07;4.57;;;;;;;29.24;77.20;101111.47;5085769;27;70120;-35
2022/11/26 00:18:02;;;;;;;4.55;4.15;;;;;;;29.17;77.03;101091.72;5085536;27;65483;-35
2022/11/26 00:20:34;;;;;;;5.57;5.07;;;;;;;29.31;76.64;101112.31;5083348;27;69893;-35
2022/11/26 00:23:05;;;;;;;5.97;5.32;;;;;;;29.30;76.67;101123.31;5084968;27;66080;-35
2022/11/26 00:25:37;;;;;;;;;;;;;;;29.08;77.45;101119.94;5081796;27;69855;-35
2022/11/26 00:28:26;;;;;;;7.18;5.78;;;;;;;29.20;76.78;101122.88;5083395;27;66736;-35
2022/11/26 00:31:00;;;;;;;5.82;5.32;;;;;;;29.30;77.16;101123.31;5083006;27;69281;-36
2022/11/26 00:33:31;;;;;;;6.30;5.53;;;;;;;29.26;76.37;101116.69;5084820;27;65747;-35
2022/11/26 00:36:21;;;;;;;5.82;5.43;;;;;;;29.27;76.55;101121.88;5084689;27;69255;-35
2022/11/26 00:38:56;;;;;;;6.15;5.55;;;;;;;29.35;76.93;101124.38;5084710;27;65398;-36
2022/11/26 00:41:32;;;;;;;9.38;6.10;;;;;;;29.25;76.67;101118.53;5081165;27;70186;-35
2022/11/26 00:44:04;;;;;;;6.57;6.03;;;;;;;29.36;76.63;101130.59;5092074;27;66793;-35
2022/11/26 00:46:36;;;;;;;8.10;6.40;;;;;;;29.24;77.08;101111.47;5090840;27;70337;-35
2022/11/26 00:49:07;;;;;;;8.73;5.95;;;;;;;29.38;76.96;101140.19;5088784;27;65794;-35
2022/11/26 00:51:39;;;;;;;6.27;5.77;;;;;;;29.37;76.46;101133.13;5091854;27;70158;-35
2022/11/26 00:54:14;;;;;;;6.38;5.82;;;;;;;28.73;76.42;101028.19;5086186;27;65770;-35
2022/11/26 00:56:47;;;;;;;7.22;6.30;;;;;;;29.16;76.31;101101.66;5083396;27;70119;-35
2022/11/26 00:59:22;;;;;;;6.55;5.78;;;;;;;29.13;76.37;101093.16;5090481;27;65708;-34
2022/11/26 01:01:53;;;;;;;5.78;5.22;;;;;;;29.28;76.56;101130.78;5081698;27;70192;-36
2022/11/26 01:04:25;;;;;;;5.57;5.18;;;;;;;29.38;76.55;101153.69;5087192;27;66069;-35
2022/11/26 01:06:56;;;;;;;6.30;5.73;;;;;;;29.35;77.00;101148.69;5090384;27;69187;-34
2022/11/26 01:09:27;;;;;;;5.40;4.97;;;;;;;29.42;76.87;101150.56;5086880;27;66223;-35
2022/11/26 01:11:59;;;;;;;8.03;5.47;;;;;;;29.45;76.82;101163.69;5088081;27;69168;-35
2022/11/26 01:14:30;;;;;;;5.88;5.38;;;;;;;29.43;76.88;101154.97;5088284;27;64325;-35
2022/11/26 01:17:02;;;;;;;7.23;6.03;;;;;;;29.41;76.62;101144.34;5092923;27;69329;-37
2022/11/26 01:19:35;;;;;;;;;;;;;;;29.21;77.54;101149.69;5090575;27;65277;-37
2022/11/26 01:22:08;;;;;;;8.77;6.68;;;;;;;29.43;76.94;101149.56;5090688;27;69765;-36
2022/11/26 01:24:39;;;;;;;6.35;5.85;;;;;;;29.48;76.19;101153.31;5086784;27;66431;-36
2022/11/26 01:27:12;;;;;;;7.30;6.53;;;;;;;29.09;76.20;101086.50;5091721;27;70412;-35
2022/11/26 01:29:43;;;;;;;7.47;6.88;;;;;;;29.50;76.33;101153.09;5089965;27;66164;-35
2022/11/26 01:32:15;;;;;;;7.18;6.55;;;;;;;29.45;76.21;101155.56;5081133;27;70359;-36
2022/11/26 01:34:47;;;;;;;7.10;6.50;;;;;;;29.51;76.04;101158.31;5086708;27;66111;-35
2022/11/26 01:37:18;;;;;;;7.90;6.85;;;;;;;29.54;76.48;101159.78;5082660;27;69990;-35
2022/11/26 01:39:49;;;;;;;6.97;6.30;;;;;;;29.54;76.55;101157.06;5084968;27;66001;-36
2022/11/26 01:42:46;;;;;;;6.65;6.15;;;;;;;29.48;76.04;101152.50;5081800;27;70230;-36
2022/11/26 01:45:21;;;;;;;7.55;6.65;;;;;;;29.57;75.83;101162.06;5088919;27;65002;-35
2022/11/26 01:47:52;;;;;;;7.35;6.68;;;;;;;29.34;75.72;101122.72;5091444;27;70252;-35
2022/11/26 01:50:35;;;;;;;9.80;7.20;;;;;;;29.57;76.24;101143.16;5085815;27;65915;-34
2022/11/26 01:53:15;;;;;;;8.88;6.55;;;;;;;29.61;75.62;101163.31;5082592;27;70333;-35
2022/11/26 01:55:53;;;;;;;6.60;5.97;;;;;;;29.51;75.71;101130.47;5084702;27;66418;-35
2022/11/26 01:58:33;;;;;;;7.13;6.43;;;;;;;29.64;76.10;101152.13;5083661;27;70240;-35
2022/11/26 02:01:09;;;;;;;8.13;7.43;;;;;;;29.64;75.54;101146.69;5087071;27;65590;-36
2022/11/26 02:03:57;;;;;;;8.27;7.18;;;;;;;28.98;75.99;101033.03;5082692;27;70045;-34
2022/11/26 02:06:34;;;;;;;7.18;6.68;;;;;;;29.65;75.52;101142.97;5083253;27;65348;-35
2022/11/26 02:09:08;;;;;;;7.50;6.90;;;;;;;29.11;75.85;101060.09;5082156;27;70490;-34
2022/11/26 02:11:40;;;;;;;7.60;7.10;;;;;;;29.68;75.54;101141.75;5086656;27;66264;-35
2022/11/26 02:14:14;;;;;;;7.38;6.85;;;;;;;29.67;76.05;101151.72;5084680;27;70146;-35
2022/11/26 02:17:10;;;;;;;7.50;6.90;;;;;;;29.70;75.74;101148.63;5080424;27;65802;-35
2022/11/26 02:19:59;;;;;;;12.55;7.20;;;;;;;28.98;75.73;101039.28;5081888;27;69322;-36
2022/11/26 02:22:42;;;;;;;7.10;6.60;;;;;;;29.72;75.40;101149.22;5088677;27;66098;-36
2022/11/26 02:25:29;;;;;;;7.05;6.55;;;;;;;29.71;75.88;101147.56;5084911;27;69512;-36
2022/11/26 02:28:41;;;;;;;7.40;6.80;;;;;;;29.59;75.52;101154.59;5086210;27;65665;-41
2022/11/26 02:31:23;;;;;;;8.52;7.75;;;;;;;29.69;75.47;101146.94;5012351;28;71124;-38
2022/11/26 02:34:17;;;;;;;9.18;7.32;;;;;;;29.67;75.33;101157.13;4994562;28;65462;-37
2022/11/26 02:36:58;;;;;;;7.68;7.00;;;;;;;29.79;75.14;101155.47;5072358;27;70122;-36
2022/11/26 02:39:30;;;;;;;7.70;6.78;;;;;;;29.75;75.22;101158.78;5080525;27;66776;-36
2022/11/26 02:42:03;;;;;;;7.32;6.82;;;;;;;29.74;75.03;101141.75;5089884;27;69799;-35
2022/11/26 02:44:43;;;;;;;7.28;6.63;;;;;;;29.48;75.41;101093.84;5083092;27;67077;-35
2022/11/26 02:47:17;;;;;;;7.55;6.82;;;;;;;29.81;74.88;101148.00;5090449;27;70126;-36
2022/11/26 02:49:51;;;;;;;7.30;6.80;;;;;;;29.84;74.85;101158.41;5090399;27;66234;-36
2022/11/26 02:52:24;;;;;;;6.55;6.05;;;;;;;29.40;75.17;101078.66;5083935;27;70830;-35
2022/11/26 02:54:57;;;;;;;7.45;6.75;;;;;;;29.80;74.86;101151.72;5081302;27;66222;-34
2022/11/26 02:57:33;;;;;;;7.00;6.40;;;;;;;29.67;75.18;101130.09;5086084;27;69351;-36
2022/11/26 03:00:06;;;;;;;8.45;6.50;;;;;;;29.48;75.29;101082.22;5080514;27;66153;-36
2022/11/26 03:02:48;;;;;;;6.47;5.97;;;;;;;29.87;74.90;101142.81;5082574;27;69473;-35
2022/11/26 03:05:19;;;;;;;6.20;5.72;;;;;;;29.87;75.02;101143.63;5083050;27;66552;-35
2022/11/26 03:07:53;;;;;;;6.28;5.78;;;;;;;29.26;74.72;101027.53;5084647;27;70060;-35
2022/11/26 03:10:27;;;;;;;7.18;6.68;;;;;;;29.94;74.47;101135.50;5080994;27;66396;-35
2022/11/26 03:12:58;;;;;;;5.97;5.65;;;;;;;29.93;74.70;101133.84;5088292;27;70310;-34
2022/11/26 03:15:30;;;;;;;5.53;5.22;;;;;;;29.93;74.52;101123.03;5086000;27;66401;-35
2022/11/26 03:18:01;;;;;;;6.22;5.68;;;;;;;29.83;74.60;101099.91;5081528;27;69791;-34
2022/11/26 03:20:33;;;;;;;6.03;5.50;;;;;;;29.94;74.60;101112.00;5086582;27;66888;-35
2022/11/26 03:23:05;;;;;;;5.75;5.43;;;;;;;29.97;74.99;101116.16;5084016;27;69279;-35
2022/11/26 03:25:37;;;;;;;5.68;5.38;;;;;;;29.99;74.73;101106.78;5081308;27;65829;-36
2022/11/26 03:28:08;;;;;;;5.90;5.50;;;;;;;29.99;74.47;101097.84;5080921;27;70558;-35
2022/11/26 03:30:40;;;;;;;5.75;5.35;;;;;;;30.01;74.63;101096.59;5079432;27;65410;-37
2022/11/26 03:33:11;;;;;;;5.97;5.57;;;;;;;30.05;74.72;101099.72;5092827;27;69177;-36
2022/11/26 03:35:42;;;;;;;5.90;5.40;;;;;;;29.96;74.53;101084.75;5089561;27;65980;-34
2022/11/26 03:38:14;;;;;;;5.22;4.82;;;;;;;29.93;74.08;101075.19;5080857;27;69355;-35
2022/11/26 03:40:45;;;;;;;;;;;;;;;29.84;75.16;101093.50;5087642;27;66376;-34
2022/11/26 03:43:16;;;;;;;7.57;5.68;;;;;;;30.08;74.11;101087.66;5085420;27;69343;-35
2022/11/26 03:45:48;;;;;;;5.53;5.07;;;;;;;30.10;74.10;101086.41;5085145;27;65433;-35
2022/11/26 03:48:19;;;;;;;5.03;4.72;;;;;;;30.12;74.07;101078.09;5083660;27;69312;-37
2022/11/26 03:50:51;;;;;;;5.30;4.90;;;;;;;30.13;74.14;101075.16;5083047;27;65300;-36
2022/11/26 03:53:22;;;;;;;6.03;5.53;;;;;;;30.12;74.43;101059.97;5093861;27;69825;-36
2022/11/26 03:55:53;;;;;;;5.28;4.90;;;;;;;30.15;74.44;101062.25;5088136;27;66162;-35
2022/11/26 03:58:25;;;;;;;5.67;5.23;;;;;;;30.16;74.41;101050.38;5084690;27;70134;-44
2022/11/26 04:00:56;;;;;;;5.57;5.03;;;;;;;30.10;74.28;101032.28;5091016;27;65067;-35
2022/11/26 04:03:27;;;;;;;5.40;5.00;;;;;;;29.93;74.15;101004.03;5088601;27;69996;-37
2022/11/26 04:05:59;;;;;;;6.20;5.65;;;;;;;30.18;73.60;101029.34;5090946;27;66094;-35
2022/11/26 04:08:30;;;;;;;5.10;4.68;;;;;;;30.21;74.07;101028.94;5092403;27;69341;-38
2022/11/26 04:11:02;;;;;;;4.90;4.60;;;;;;;30.25;73.44;101015.84;5090727;27;65937;-35
2022/11/26 04:13:33;;;;;;;5.20;4.90;;;;;;;30.31;73.91;101016.84;5089648;27;69684;-36
2022/11/26 04:16:05;;;;;;;4.40;4.10;;;;;;;30.14;73.67;100987.53;5085948;27;66151;-37
2022/11/26 04:18:36;;;;;;;4.90;4.60;;;;;;;30.31;73.60;101004.16;5083972;27;70464;-35
2022/11/26 04:21:08;;;;;;;5.18;4.78;;;;;;;30.18;73.63;100980.66;5084378;27;66805;-36
2022/11/26 04:23:40;;;;;;;5.35;5.05;;;;;;;30.31;73.77;100990.63;5083917;27;69626;-35
2022/11/26 04:26:11;;;;;;;4.70;4.40;;;;;;;30.36;73.67;100998.94;5090438;27;65875;-35
2022/11/26 04:28:43;;;;;;;;;;;;;;;30.14;74.19;100986.69;5087850;27;69558;-37
2022/11/26 04:31:14;;;;;;;5.00;4.63;;;;;;;30.37;73.44;100980.81;5091698;27;66243;-37
2022/11/26 04:33:46;;;;;;;4.68;4.32;;;;;;;30.32;73.54;100962.53;5088197;27;70178;-37
2022/11/26 04:36:17;;;;;;;4.40;4.10;;;;;;;30.43;72.98;100969.16;5085604;27;65699;-37
2022/11/26 04:38:49;;;;;;;4.70;4.40;;;;;;;30.44;73.12;100968.09;5085176;27;69726;-36
2022/11/26 04:41:21;;;;;;;4.90;4.60;;;;;;;30.44;72.88;100958.09;5083811;27;65226;-36
2022/11/26 04:43:53;;;;;;;4.15;3.95;;;;;;;30.47;73.31;100946.00;5083904;27;69043;-36
2022/11/26 04:46:25;;;;;;;4.53;4.22;;;;;;;30.49;72.91;100949.34;5096532;27;65376;-35
2022/11/26 04:48:56;;;;;;;5.18;4.40;;;;;;;30.22;72.79;100900.75;5090189;27;70519;-35
2022/11/26 04:51:28;;;;;;;5.13;4.72;;;;;;;30.42;72.59;100918.75;5095983;27;67055;-35
2022/11/26 04:53:59;;;;;;;5.23;4.93;;;;;;;30.55;73.22;100934.09;5096703;27;70265;-36
2022/11/26 04:56:33;;;;;;;4.78;4.45;;;;;;;30.48;72.91;100923.31;5088416;27;65675;-35
2022/11/26 04:59:04;;;;;;;4.43;4.13;;;;;;;30.43;73.03;100909.59;5083968;27;70073;-37
2022/11/26 05:01:36;;;;;;;4.65;4.35;;;;;;;30.54;72.75;100919.75;5091429;27;65385;-40
2022/11/26 05:04:07;;;;;;;;;;;;;;;30.35;73.72;100915.28;5086278;27;70504;-35
2022/11/26 05:06:39;;;;;;;5.30;4.68;;;;;;;30.58;72.83;100915.53;5082938;27;66842;-35
2022/11/26 05:09:10;;;;;;;4.37;4.03;;;;;;;30.59;72.57;100906.38;5087505;27;70202;-35
2022/11/26 05:11:41;;;;;;;4.28;3.97;;;;;;;30.61;72.57;100901.56;5085012;27;65111;-35
2022/11/26 05:14:12;;;;;;;4.20;3.90;;;;;;;30.59;72.53;100895.56;5084704;27;68739;-35
2022/11/26 05:16:45;;;;;;;3.92;3.72;;;;;;;30.63;72.52;100885.94;5092407;27;66739;-35
2022/11/26 05:19:16;;;;;;;4.00;3.80;;;;;;;30.46;72.57;100855.03;5086105;27;69094;-35
2022/11/26 05:21:47;;;;;;;4.43;4.10;;;;;;;30.43;72.37;100841.94;5094478;27;66190;-36
2022/11/26 05:24:19;;;;;;;3.97;3.78;;;;;;;30.66;72.62;100866.53;5082196;27;70394;-34
2022/11/26 05:26:50;;;;;;;6.22;3.67;;;;;;;30.66;72.13;100846.78;5084628;27;66105;-36
2022/11/26 05:29:26;;;;;;;3.42;3.22;;;;;;;30.59;72.37;100830.59;5087285;27;70457;-34
2022/11/26 05:31:57;;;;;;;;;;;;;;;30.48;72.85;100832.13;5091640;27;66560;-36
2022/11/26 05:34:28;;;;;;;3.85;3.65;;;;;;;30.70;72.37;100827.16;5071796;27;70180;-35
2022/11/26 05:37:00;;;;;;;;;;;;;;;30.50;72.96;100824.59;5087097;27;66690;-35
2022/11/26 05:39:31;;;;;;;3.47;3.28;;;;;;;30.75;72.27;100817.53;5082504;27;69896;-36
2022/11/26 05:42:03;;;;;;;4.13;3.92;;;;;;;30.80;71.77;100815.03;5087603;27;66212;-35
2022/11/26 05:44:38;;;;;;;4.25;4.00;;;;;;;30.82;72.06;100808.34;5085713;27;69339;-35
2022/11/26 05:47:10;;;;;;;3.88;3.63;;;;;;;30.85;71.85;100805.19;5082465;27;65564;-36
2022/11/26 05:49:42;;;;;;;3.63;3.42;;;;;;;30.86;71.84;100795.19;5083122;27;70522;-36
2022/11/26 05:52:13;;;;;;;3.67;3.45;;;;;;;30.84;71.71;100789.16;5090228;27;66313;-37
2022/11/26 05:54:44;;;;;;;3.50;3.30;;;;;;;30.90;71.72;100788.28;5084856;27;69366;-35
2022/11/26 05:57:17;;;;;;;3.92;3.50;;;;;;;30.87;71.47;100767.03;5082141;27;66391;-38
2022/11/26 05:59:48;;;;;;;3.72;3.53;;;;;;;30.90;71.92;100761.19;5085323;27;70370;-35
2022/11/26 06:02:19;;;;;;;3.25;3.05;;;;;;;30.90;71.54;100744.94;5091880;27;66060;-36
2022/11/26 06:04:51;;;;;;;3.42;3.22;;;;;;;30.81;71.59;100732.72;5081723;27;70140;-35
2022/11/26 06:07:22;;;;;;;3.45;3.25;;;;;;;30.96;71.52;100744.03;5093039;27;65113;-35
2022/11/26 06:09:54;;;;;;;3.80;3.58;;;;;;;30.89;71.51;100732.44;5087262;27;68993;-35
2022/11/26 06:12:26;;;;;;;3.58;3.38;;;;;;;30.99;71.46;100735.47;5085351;27;66730;-36
2022/11/26 06:14:58;;;;;;;3.72;3.42;;;;;;;30.90;71.57;100723.28;5088094;27;69283;-35
2022/11/26 06:17:30;;;;;;;3.40;3.20;;;;;;;30.93;71.84;100712.00;5082449;27;66043;-37
2022/11/26 06:20:01;;;;;;;5.57;3.38;;;;;;;31.01;71.49;100719.84;5087897;27;69935;-35
2022/11/26 06:22:37;;;;;;;3.83;3.60;;;;;;;30.56;71.05;100641.50;5081627;27;66889;-35
2022/11/26 06:25:12;;;;;;;4.35;3.67;;;;;;;30.64;71.23;100652.03;5076882;27;70053;-35
2022/11/26 06:27:43;;;;;;;3.55;3.28;;;;;;;31.09;71.17;100706.00;5085162;27;66710;-36
2022/11/26 06:30:14;;;;;;;3.80;3.50;;;;;;;31.09;70.56;100713.25;5090757;27;70202;-35
2022/11/26 06:32:46;;;;;;;3.58;3.35;;;;;;;30.87;70.84;100658.72;5086578;27;66260;-34
2022/11/26 06:35:18;;;;;;;5.07;3.63;;;;;;;31.13;70.87;100696.34;5090947;27;70221;-36
2022/11/26 06:37:49;;;;;;;3.83;3.53;;;;;;;31.14;70.54;100706.09;5093375;27;65389;-34
2022/11/26 06:40:21;;;;;;;4.72;4.20;;;;;;;30.61;70.74;100619.19;5093433;27;70196;-35
2022/11/26 06:42:53;;;;;;;3.67;3.38;;;;;;;30.56;70.31;100600.09;5090191;27;66441;-35
2022/11/26 06:45:25;;;;;;;3.78;3.47;;;;;;;31.19;70.43;100693.78;5079645;27;69615;-35
2022/11/26 06:47:56;;;;;;;5.32;4.00;;;;;;;31.22;70.63;100694.16;5083667;27;65445;-37
2022/11/26 06:50:28;;;;;;;6.50;4.35;;;;;;;31.07;70.49;100670.16;5084618;27;69671;-35
2022/11/26 06:52:59;;;;;;;4.25;3.85;;;;;;;31.23;70.39;100693.09;5090069;27;66025;-35
2022/11/26 06:55:30;;;;;;;5.05;3.83;;;;;;;31.22;70.59;100685.19;5088547;27;69558;-35
2022/11/26 06:58:02;;;;;;;7.72;4.30;;;;;;;31.23;70.20;100684.97;5092725;27;65224;-35
2022/11/26 07:00:33;;;;;;;;;;;;;;;31.05;70.91;100676.84;5093048;27;70339;-37
2022/11/26 07:03:04;;;;;;;4.68;4.28;;;;;;;31.25;70.66;100671.19;5085678;27;64557;-42
2022/11/26 07:05:36;;;;;;;4.70;4.40;;;;;;;31.32;70.13;100669.22;5084508;27;69196;-35
2022/11/26 07:08:08;;;;;;;9.05;4.75;;;;;;;31.32;70.45;100663.81;5083886;27;66953;-35
2022/11/26 07:10:39;;;;;;;7.65;5.32;;;;;;;31.28;70.16;100649.88;5086097;27;69100;-35
2022/11/26 07:13:18;;;;;;;5.65;4.47;;;;;;;31.33;70.29;100660.03;5085965;27;65738;-36
2022/11/26 07:15:49;;;;;;;5.00;4.60;;;;;;;31.26;70.20;100651.16;5087260;27;69629;-35
2022/11/26 07:18:21;;;;;;;9.10;4.95;;;;;;;31.22;70.08;100636.41;5083422;27;66164;-36
2022/11/26 07:20:52;;;;;;;5.10;4.68;;;;;;;31.29;70.35;100639.88;5090229;27;69233;-35
2022/11/26 07:23:24;;;;;;;4.82;4.43;;;;;;;31.30;70.19;100644.22;5097368;27;65931;-35
2022/11/26 07:25:58;;;;;;;4.25;3.92;;;;;;;31.33;69.97;100639.19;5092279;27;69353;-35
2022/11/26 07:28:30;;;;;;;4.28;3.95;;;;;;;31.39;70.08;100641.00;5090897;27;66521;-35
2022/11/26 07:31:03;;;;;;;;;;;;;;;31.24;70.67;100647.88;5091051;27;70234;-35
2022/11/26 07:33:39;;;;;;;5.10;4.10;;;;;;;31.43;69.93;100630.53;5086260;27;66649;-37
2022/11/26 07:36:17;;;;;;;;;;;;;;;31.29;70.56;100629.88;5087742;27;70211;-36
2022/11/26 07:38:49;;;;;;;5.60;3.80;;;;;;;31.53;69.71;100635.38;5089221;27;65745;-33
2022/11/26 07:41:21;;;;;;;4.93;4.53;;;;;;;31.56;69.43;100622.19;5089529;27;70115;-37
2022/11/26 07:43:53;;;;;;;4.75;3.92;;;;;;;31.58;69.69;100620.09;5092145;27;65909;-36
2022/11/26 07:46:25;;;;;;;6.07;4.07;;;;;;;31.56;69.37;100614.06;5094508;27;70128;-35
2022/11/26 07:48:57;;;;;;;4.40;4.00;;;;;;;31.63;69.01;100634.84;5085901;27;66506;-35
2022/11/26 07:51:31;;;;;;;4.13;3.72;;;;;;;31.36;69.01;100594.56;5087444;27;69806;-35
2022/11/26 07:54:06;;;;;;;4.88;3.78;;;;;;;31.66;69.18;100645.22;5085037;27;66669;-36
2022/11/26 07:56:37;;;;;;;3.63;3.33;;;;;;;31.63;69.05;100640.28;5090829;27;70306;-36
2022/11/26 07:59:10;;;;;;;3.78;3.45;;;;;;;31.22;69.20;100569.50;5086814;27;65921;-36
2022/11/26 08:01:42;;;;;;;4.10;3.80;;;;;;;31.52;69.28;100601.22;5094805;27;70403;-35
2022/11/26 08:04:13;;;;;;;3.28;3.08;;;;;;;31.66;68.94;100626.25;5087893;27;65269;-36
2022/11/26 08:06:45;;;;;;;3.75;3.45;;;;;;;31.69;69.17;100623.06;5089639;27;69407;-37
2022/11/26 08:09:16;;;;;;;5.63;3.78;;;;;;;31.66;68.92;100609.97;5085510;27;66324;-35
2022/11/26 08:11:47;;;;;;;3.90;3.28;;;;;;;31.64;69.08;100604.78;5085004;27;70171;-35
2022/11/26 08:14:19;;;;;;;7.35;2.90;;;;;;;31.76;68.74;100610.22;5088953;27;65409;-36
2022/11/26 08:16:50;;;;;;;4.05;3.58;;;;;;;31.37;69.02;100560.97;5092199;27;70636;-35
2022/11/26 08:19:23;;;;;;;5.65;3.80;;;;;;;31.76;68.67;100618.34;5086735;27;67483;-35
2022/11/26 08:21:55;;;;;;;3.83;3.53;;;;;;;31.85;68.90;100638.69;5089761;27;69823;-36
2022/11/26 08:24:27;;;;;;;8.18;3.28;;;;;;;31.86;68.62;100648.44;5094214;27;65915;-35
2022/11/26 08:26:58;;;;;;;4.22;3.10;;;;;;;31.89;68.60;100650.69;5086366;27;69791;-37
2022/11/26 08:29:31;;;;;;;3.60;3.30;;;;;;;31.92;68.68;100644.84;5083443;27;66344;-35
2022/11/26 08:32:02;;;;;;;3.38;3.00;;;;;;;31.94;68.60;100656.28;5088611;27;71200;-35
2022/11/26 08:34:34;;;;;;;5.65;3.40;;;;;;;31.81;68.60;100626.63;5084125;27;66093;-36
2022/11/26 08:37:06;;;;;;;3.38;3.05;;;;;;;31.96;68.51;100640.63;5085950;27;69550;-35
2022/11/26 08:39:38;;;;;;;3.72;3.42;;;;;;;32.02;68.40;100633.44;5093739;27;66899;-35
2022/11/26 08:42:12;;;;;;;3.97;3.45;;;;;;;32.05;68.62;100617.50;5084976;27;43103;-35
2022/11/26 08:44:43;;;;;;;4.72;2.88;;;;;;;32.09;68.55;100617.84;5084178;27;65541;-35
2022/11/26 08:47:14;;;;;;;;;;;;;;;31.90;69.11;100625.25;5091134;27;70268;-36
2022/11/26 08:49:48;;;;;;;8.98;3.55;;;;;;;32.11;68.58;100636.63;5073707;27;65604;-35
2022/11/26 08:52:19;;;;;;;3.03;2.83;;;;;;;32.17;68.21;100654.66;5086299;27;69367;-33
2022/11/26 08:54:51;;;;;;;3.45;3.20;;;;;;;32.15;68.26;100654.06;5084600;27;65315;-35
2022/11/26 08:57:22;;;;;;;5.57;3.05;;;;;;;32.17;68.08;100669.06;5085150;27;69444;-37
2022/11/26 08:59:54;;;;;;;2.95;2.75;;;;;;;32.15;68.20;100667.63;5092528;27;65417;-35
2022/11/26 09:02:26;;;;;;;4.40;3.35;;;;;;;32.18;68.16;100680.72;5083926;27;70206;-35
2022/11/26 09:04:58;;;;;;;2.92;2.72;;;;;;;32.18;68.01;100691.59;5086555;27;66983;-35
2022/11/26 09:07:29;;;;;;;2.83;2.60;;;;;;;32.13;68.42;100688.78;5088062;27;70224;-36
2022/11/26 09:10:01;;;;;;;7.32;3.63;;;;;;;32.07;68.22;100674.25;5082060;27;66450;-35
2022/11/26 09:12:32;;;;;;;3.13;2.75;;;;;;;32.05;68.60;100654.66;5085120;27;70470;-35
2022/11/26 09:15:04;;;;;;;2.72;2.50;;;;;;;32.13;68.11;100667.06;5087944;27;65371;-36
2022/11/26 09:17:36;;;;;;;3.33;3.13;;;;;;;32.11;68.43;100667.28;5083535;27;70159;-35
2022/11/26 09:20:08;;;;;;;2.90;2.70;;;;;;;32.11;68.48;100663.75;5081396;27;65314;-35
2022/11/26 09:22:39;;;;;;;4.72;2.88;;;;;;;32.13;68.69;100664.34;5071549;27;68032;-35
2022/11/26 09:25:10;;;;;;;3.63;2.75;;;;;;;32.13;68.58;100661.63;5085522;27;66023;-36
2022/11/26 09:27:42;;;;;;;3.58;2.78;;;;;;;31.91;68.29;100631.50;5086988;27;70234;-36
2022/11/26 09:30:15;;;;;;;3.78;2.70;;;;;;;32.09;68.79;100661.25;5090050;27;66176;-36
2022/11/26 09:32:46;;;;;;;3.33;3.05;;;;;;;32.02;68.66;100664.09;5085777;27;70594;-35
2022/11/26 09:35:17;;;;;;;2.47;2.30;;;;;;;32.12;68.75;100670.81;5088554;27;66262;-35
2022/11/26 09:37:49;;;;;;;2.90;2.70;;;;;;;32.03;68.95;100656.78;5087311;27;70339;-35
2022/11/26 09:40:24;;;;;;;2.92;2.45;;;;;;;32.11;68.95;100663.75;5090673;27;66419;-36
2022/11/26 09:43:07;;;;;;;3.08;2.60;;;;;;;32.13;68.66;100669.78;5090205;27;68990;-38
2022/11/26 09:45:54;;;;;;;4.35;2.63;;;;;;;31.84;68.61;100637.00;5086701;27;66187;-36
2022/11/26 09:48:30;;;;;;;8.48;3.25;;;;;;;32.13;68.68;100678.75;5093280;27;69974;-35
2022/11/26 09:51:14;;;;;;;9.45;2.70;;;;;;;32.07;68.91;100674.25;5087491;27;65327;-35
2022/11/26 09:53:49;;;;;;;3.80;3.08;;;;;;;31.26;68.77;100535.47;5088239;27;69978;-36
2022/11/26 09:56:24;;;;;;;2.88;2.63;;;;;;;32.12;68.76;100670.81;5091113;27;66246;-37
2022/11/26 09:59:02;;;;;;;3.05;2.85;;;;;;;32.12;68.84;100687.09;5086755;27;70281;-36
2022/11/26 10:01:34;;;;;;;5.38;2.80;;;;;;;32.12;68.95;100676.25;5087342;27;66411;-35
2022/11/26 10:04:08;;;;;;;6.40;3.58;;;;;;;31.97;69.17;100655.00;5093469;27;70217;-35
2022/11/26 10:07:03;;;;;;;3.85;2.53;;;;;;;31.98;68.63;100679.19;5081188;27;65781;-36
2022/11/26 10:09:53;;;;;;;6.25;2.78;;;;;;;32.08;69.39;100680.50;5088747;27;69685;-36
2022/11/26 10:13:23;;;;;;;3.17;2.50;;;;;;;31.44;69.36;100605.06;5089009;27;66076;-37
2022/11/26 10:16:28;;;;;;;2.75;2.53;;;;;;;31.50;69.50;100617.69;5018186;28;70348;-38
2022/11/26 10:19:23;;;;;;;2.63;2.42;;;;;;;32.00;69.04;100703.38;5091233;27;65518;-36
2022/11/26 10:22:03;;;;;;;4.88;2.65;;;;;;;31.60;69.50;100641.56;5090188;27;70338;-39
2022/11/26 10:24:42;;;;;;;2.70;2.50;;;;;;;31.53;69.06;100641.63;5092993;27;65577;-38
2022/11/26 10:27:17;;;;;;;2.80;2.60;;;;;;;31.61;69.34;100654.03;5098375;27;70552;-39
2022/11/26 10:30:02;;;;;;;2.35;1.95;;;;;;;31.32;69.37;100623.16;5088360;27;66936;-36
2022/11/26 10:32:41;;;;;;;2.50;2.20;;;;;;;31.46;69.34;100651.75;5092674;27;69516;-36
2022/11/26 10:35:21;;;;;;;2.17;1.98;;;;;;;31.53;69.33;100657.91;5085956;27;65461;-36
2022/11/26 10:37:55;;;;;;;3.92;2.63;;;;;;;31.50;69.50;100647.53;5095278;27;70041;-36
2022/11/26 10:40:29;;;;;;;2.22;2.05;;;;;;;31.10;69.25;100591.13;5080544;27;65949;-37
2022/11/26 10:43:09;;;;;;;2.63;2.42;;;;;;;31.97;69.62;100722.81;5087094;27;70068;-37
2022/11/26 10:45:51;;;;;;;2.30;2.10;;;;;;;31.95;69.17;100730.34;5078852;27;65002;-38
2022/11/26 10:48:26;;;;;;;;;;;;;;;31.69;70.28;100736.97;5083775;27;70807;-36
2022/11/26 10:51:03;;;;;;;2.83;2.10;;;;;;;31.87;69.70;100736.91;5088719;27;66682;-38
2022/11/26 10:53:52;;;;;;;2.63;2.42;;;;;;;31.81;69.46;100745.97;5086584;27;70282;-38
2022/11/26 10:56:33;;;;;;;2.80;2.05;;;;;;;31.82;69.53;100734.91;5089903;27;66422;-38
2022/11/26 10:59:19;;;;;;;2.33;2.17;;;;;;;31.84;69.39;100750.91;5085729;27;70033;-36
2022/11/26 11:01:52;;;;;;;2.10;2.00;;;;;;;31.84;69.56;100748.22;5090699;27;65617;-36
2022/11/26 11:04:42;;;;;;;3.03;2.28;;;;;;;31.79;69.66;100753.53;5082385;27;70285;-36
2022/11/26 11:07:40;;;;;;;2.80;2.00;;;;;;;31.60;69.59;100737.28;5082906;27;65544;-36
2022/11/26 11:10:16;;;;;;;2.45;2.25;;;;;;;31.80;69.77;100760.59;5089427;27;70490;-35
2022/11/26 11:13:10;;;;;;;2.40;2.20;;;;;;;31.25;69.94;100679.31;5085740;27;65710;-36
2022/11/26 11:15:43;;;;;;;2.50;2.30;;;;;;;31.78;69.96;100768.13;5082343;27;69358;-36
2022/11/26 11:18:21;;;;;;;2.28;2.10;;;;;;;31.75;69.86;100776.72;5088037;27;64771;-41
2022/11/26 11:20:54;;;;;;;2.35;2.15;;;;;;;31.74;69.96;100789.47;5083632;27;69555;-35
2022/11/26 11:23:29;;;;;;;2.45;2.25;;;;;;;31.76;69.74;100791.91;5083869;27;66896;-34
2022/11/26 11:26:24;;;;;;;4.18;2.17;;;;;;;31.74;69.92;100792.16;5085324;27;70493;-34
2022/11/26 11:28:57;;;;;;;2.67;2.08;;;;;;;31.65;70.14;100779.13;5083769;27;67282;-35
2022/11/26 11:31:43;;;;;;;4.00;2.50;;;;;;;31.40;69.81;100739.44;5093725;27;70216;-38
2022/11/26 11:34:28;;;;;;;3.00;2.67;;;;;;;31.67;69.97;100790.59;5086265;27;66157;-35
2022/11/26 11:37:03;;;;;;;3.10;2.20;;;;;;;31.13;70.08;100699.03;5087639;27;70139;-38
2022/11/26 11:39:35;;;;;;;3.28;2.00;;;;;;;31.58;70.03;100780.06;5093232;27;67299;-35
2022/11/26 11:42:28;;;;;;;2.30;2.10;;;;;;;31.53;69.98;100777.19;5082556;27;70587;-36
2022/11/26 11:45:03;;;;;;;2.33;2.20;;;;;;;31.65;70.58;100806.25;5081461;27;66170;-36
2022/11/26 11:47:46;;;;;;;2.00;1.90;;;;;;;31.52;70.13;100783.69;5086720;27;69181;-35
2022/11/26 11:50:41;;;;;;;2.25;2.10;;;;;;;31.52;70.44;100786.38;5079961;27;66329;-36
2022/11/26 11:53:35;;;;;;;3.20;2.22;;;;;;;31.59;70.68;100800.72;5082719;27;70742;-35
2022/11/26 11:56:17;;;;;;;2.50;2.30;;;;;;;31.61;70.38;100801.28;5084906;27;65729;-36
2022/11/26 11:59:14;;;;;;;2.53;2.05;;;;;;;31.56;70.44;100798.41;5083936;27;70481;-36
2022/11/26 12:01:58;;;;;;;3.17;2.40;;;;;;;31.57;70.13;100800.09;5088145;27;65729;-36
2022/11/26 12:04:57;;;;;;;2.10;1.95;;;;;;;31.48;70.43;100800.63;5083240;27;70995;-38
2022/11/26 12:07:39;;;;;;;2.60;2.40;;;;;;;31.37;70.46;100783.22;5080730;27;66236;-37